Dati Storici

Data ora Umidita' aria (%) Temperatura aria (°C) Rad globale (W/m²) Gonioanemometro (°) Tacoanemometro (m/s) Pioggia (mm)
21-10-2012 02:40 94.8 % 12.199 2.257 304.683 0.371 0
21-10-2012 02:30 94.8 % 12.338 2.359 351.249 0.493 0
21-10-2012 02:20 94.6 % 12.143 2.257 298.649 -0.007 0
21-10-2012 02:10 94.3 % 12.016 2.231 1.086 -0.006 0
21-10-2012 02:00 94.2 % 12.057 2.166 1.135 0.165 0
21-10-2012 01:50 94.5 % 12.313 2.245 234.685 0.098 0
21-10-2012 01:40 94.4 % 12.32 2.207 227.844 0.259 0
21-10-2012 01:30 93.9 % 12.013 2.143 240.325 -0.012 0
21-10-2012 01:20 93.7 % 11.906 2.258 1.108 -0.012 0
21-10-2012 01:10 94 % 12.201 2.387 268.892 -0.008 0
21-10-2012 01:00 93.8 % 12.156 2.099 248.676 -0.016 0
21-10-2012 00:50 93.9 % 12.258 2.086 235.732 -0.015 0
21-10-2012 00:40 94 % 12.399 2.279 18.336 0.363 0
21-10-2012 00:30 93.9 % 12.301 2.241 36.458 0.087 0
21-10-2012 00:20 94 % 12.397 2.638 23.033 0.247 0
21-10-2012 00:10 93.6 % 12.132 2.189 306.33 -0.001 0
21-10-2012 00:00 93.4 % 12.073 2.381 294.604 -0.011 0
20-10-2012 23:50 93.5 % 12.102 2.497 185.455 -0.009 0
20-10-2012 23:40 93.5 % 12.174 2.548 153.388 -0.01 0
20-10-2012 23:30 93.4 % 12.199 2.318 108.648 0.26 0

I dati sono presentati in modo automatico a scopo informativo. In seguito a verifica i dati possono subire modifiche o essere invalidati e non riportati negli archivi definitivi.